createdAt,value
2022-10-05T00:01:35.041Z,99752.84
2022-10-05T00:04:15.272Z,99758.22
2022-10-05T00:06:51.180Z,99761.66
2022-10-05T00:09:21.563Z,99760.00
2022-10-05T00:11:51.579Z,99749.84
2022-10-05T00:14:36.298Z,99755.94
2022-10-05T00:17:05.282Z,99754.56
2022-10-05T00:19:38.244Z,99763.03
2022-10-05T00:22:20.634Z,99773.34
2022-10-05T00:24:55.023Z,99772.09
2022-10-05T00:27:31.279Z,99766.75
2022-10-05T00:30:02.834Z,99765.13
2022-10-05T00:32:30.361Z,99767.59
2022-10-05T00:34:57.951Z,99770.19
2022-10-05T00:37:25.471Z,99762.91
2022-10-05T00:39:53.070Z,99768.41
2022-10-05T00:43:06.279Z,99764.41
2022-10-05T00:46:03.119Z,99766.06
2022-10-05T00:48:49.629Z,99766.91
2022-10-05T00:51:31.419Z,99765.81
2022-10-05T00:54:37.088Z,99764.47
2022-10-05T00:58:22.959Z,99783.63
2022-10-05T01:01:21.294Z,99781.16
2022-10-05T01:04:00.677Z,99780.63
2022-10-05T01:06:58.646Z,99782.41
2022-10-05T01:10:02.900Z,99784.19
2022-10-05T01:13:10.328Z,99792.16
2022-10-05T01:16:04.340Z,99782.13
2022-10-05T01:19:00.132Z,99793.94
2022-10-05T01:21:34.850Z,99795.59
2022-10-05T01:24:14.047Z,99793.50
2022-10-05T01:26:59.638Z,99796.25
2022-10-05T01:29:58.226Z,99791.34
2022-10-05T01:32:56.866Z,99802.16
2022-10-05T01:35:43.815Z,99810.22
2022-10-05T01:38:57.022Z,99804.34
2022-10-05T01:41:46.764Z,99805.16
2022-10-05T01:44:27.953Z,99806.66
2022-10-05T01:47:07.682Z,99807.63
2022-10-05T01:50:07.023Z,99807.19
2022-10-05T01:52:48.803Z,99823.06
2022-10-05T01:55:45.134Z,99820.22
2022-10-05T01:58:27.631Z,99813.34
2022-10-05T02:01:16.995Z,99826.47
2022-10-05T02:04:09.060Z,99829.34
2022-10-05T02:06:44.305Z,99834.28
2022-10-05T02:09:27.132Z,99829.50
2022-10-05T02:12:11.799Z,99845.41
2022-10-05T02:14:48.732Z,99837.59
2022-10-05T02:17:35.319Z,99834.59
2022-10-05T02:20:11.149Z,99840.31
2022-10-05T02:22:47.527Z,99847.47
2022-10-05T02:25:21.221Z,99831.84
2022-10-05T02:28:06.235Z,99837.06
2022-10-05T02:30:45.023Z,99829.78
2022-10-05T02:33:22.736Z,99833.78
2022-10-05T02:35:50.229Z,99837.59
2022-10-05T02:39:19.502Z,99839.47
2022-10-05T02:42:02.564Z,99831.94
2022-10-05T02:45:27.776Z,99832.91
2022-10-05T02:48:11.082Z,99839.72
2022-10-05T02:51:14.268Z,99841.50
2022-10-05T02:54:15.514Z,99837.50
2022-10-05T02:57:10.080Z,99847.47
2022-10-05T02:59:44.696Z,99836.91
2022-10-05T03:02:42.889Z,99828.31
2022-10-05T03:05:27.075Z,99838.84
2022-10-05T03:08:04.549Z,99835.09
2022-10-05T03:11:24.935Z,99839.34
2022-10-05T03:14:48.092Z,99837.69
2022-10-05T03:17:24.161Z,99837.69
2022-10-05T03:20:25.523Z,99831.69
2022-10-05T03:23:09.710Z,99844.00
2022-10-05T03:26:37.071Z,99834.41
2022-10-05T03:29:30.029Z,99841.09
2022-10-05T03:32:11.416Z,99830.38
2022-10-05T03:35:03.303Z,99836.41
2022-10-05T03:37:44.534Z,99833.81
2022-10-05T03:40:50.580Z,99819.84
2022-10-05T03:43:55.475Z,99814.91
2022-10-05T03:46:50.539Z,99811.34
2022-10-05T03:49:45.436Z,99817.63
2022-10-05T03:52:36.418Z,99815.19
2022-10-05T03:55:17.419Z,99820.63
2022-10-05T03:57:49.415Z,99819.56
2022-10-05T04:00:23.577Z,99823.94
2022-10-05T04:03:48.624Z,99831.13
2022-10-05T04:06:24.722Z,99840.22
2022-10-05T04:09:10.102Z,99840.09
2022-10-05T04:11:58.158Z,99841.47
2022-10-05T04:14:38.636Z,99846.97
2022-10-05T04:17:21.872Z,99848.38
2022-10-05T04:20:04.516Z,99851.66
2022-10-05T04:22:47.739Z,99856.28
2022-10-05T04:25:28.679Z,99861.50
2022-10-05T04:28:20.280Z,99863.03
2022-10-05T04:30:53.062Z,99864.28
2022-10-05T04:33:22.154Z,99867.84
2022-10-05T04:36:11.169Z,99873.59
2022-10-05T04:39:32.965Z,99876.09
2022-10-05T04:42:24.005Z,99876.63
2022-10-05T04:45:03.500Z,99879.50
2022-10-05T04:48:22.947Z,99880.78
2022-10-05T04:51:21.554Z,99875.88
2022-10-05T04:54:05.076Z,99879.16
2022-10-05T04:56:46.286Z,99878.19
2022-10-05T04:59:50.643Z,99885.06
2022-10-05T05:02:48.863Z,99884.69
2022-10-05T05:05:27.867Z,99889.47
2022-10-05T05:08:22.167Z,99888.81
2022-10-05T05:10:58.887Z,99892.69
2022-10-05T05:13:38.659Z,99903.13
2022-10-05T05:16:38.914Z,99898.22
2022-10-05T05:19:38.876Z,99900.72
2022-10-05T05:22:46.141Z,99915.19
2022-10-05T05:25:31.932Z,99913.44
2022-10-05T05:28:21.508Z,99911.56
2022-10-05T05:31:09.172Z,99911.75
2022-10-05T05:33:50.976Z,99920.69
2022-10-05T05:36:31.519Z,99926.69
2022-10-05T05:39:28.632Z,99931.09
2022-10-05T05:42:42.348Z,99937.81
2022-10-05T05:45:23.806Z,99940.44
2022-10-05T05:47:54.856Z,99946.19
2022-10-05T05:50:41.804Z,99946.75
2022-10-05T05:53:50.738Z,99944.31
2022-10-05T05:56:39.256Z,99944.13
2022-10-05T05:59:20.141Z,99947.69
2022-10-05T06:01:52.907Z,99937.47
2022-10-05T06:04:37.822Z,99927.13
2022-10-05T06:07:07.132Z,99934.69
2022-10-05T06:09:50.022Z,99933.75
2022-10-05T06:12:43.390Z,99931.97
2022-10-05T06:15:24.614Z,99930.16
2022-10-05T06:18:01.603Z,99932.03
2022-10-05T06:20:57.486Z,99936.56
2022-10-05T06:24:02.146Z,99942.78
2022-10-05T06:27:04.367Z,99946.47
2022-10-05T06:30:13.549Z,99942.03
2022-10-05T06:32:50.779Z,99949.28
2022-10-05T06:36:00.584Z,99947.34
2022-10-05T06:38:55.711Z,99950.72
2022-10-05T06:41:57.240Z,99959.03
2022-10-05T06:45:26.532Z,99963.22
2022-10-05T06:48:37.699Z,99962.53
2022-10-05T06:51:55.055Z,99952.28
2022-10-05T06:55:14.072Z,99960.97
2022-10-05T06:58:05.308Z,99947.97
2022-10-05T07:00:49.772Z,99945.97
2022-10-05T07:03:44.772Z,99949.50
2022-10-05T07:06:40.834Z,99948.50
2022-10-05T07:09:32.942Z,99948.78
2022-10-05T07:12:33.139Z,99956.00
2022-10-05T07:15:35.928Z,99950.34
2022-10-05T07:18:24.787Z,99948.13
2022-10-05T07:21:14.010Z,99947.50
2022-10-05T07:24:27.338Z,99949.72
2022-10-05T07:27:24.007Z,99952.88
2022-10-05T07:30:03.565Z,99950.00
2022-10-05T07:32:55.991Z,99947.41
2022-10-05T07:35:54.369Z,99941.47
2022-10-05T07:38:37.851Z,99949.94
2022-10-05T07:41:30.949Z,99945.94
2022-10-05T07:44:29.688Z,99944.28
2022-10-05T07:47:11.963Z,99941.19
2022-10-05T07:50:04.025Z,99948.53
2022-10-05T07:52:42.109Z,99947.13
2022-10-05T07:55:44.428Z,99948.75
2022-10-05T07:58:36.873Z,99947.28
2022-10-05T08:01:33.646Z,99943.75
2022-10-05T08:04:19.839Z,99949.50
2022-10-05T08:07:04.733Z,99958.19
2022-10-05T08:10:15.983Z,99958.72
2022-10-05T08:13:07.918Z,99951.25
2022-10-05T08:15:47.472Z,99947.22
2022-10-05T08:18:36.802Z,99949.50
2022-10-05T08:21:11.885Z,99942.75
2022-10-05T08:23:59.552Z,99942.31
2022-10-05T08:26:50.918Z,99949.91
2022-10-05T08:29:52.588Z,99946.59
2022-10-05T08:32:31.588Z,99949.06
2022-10-05T08:35:30.949Z,99948.88
2022-10-05T08:37:58.639Z,99952.72
2022-10-05T08:40:58.494Z,99950.38
2022-10-05T08:44:06.398Z,99942.31
2022-10-05T08:47:23.938Z,99955.31
2022-10-05T08:50:20.092Z,99952.34
2022-10-05T08:53:20.007Z,99957.59
2022-10-05T08:56:26.446Z,99952.63
2022-10-05T08:59:14.321Z,99946.16
2022-10-05T09:02:32.201Z,99943.63
2022-10-05T09:06:15.637Z,99939.97
2022-10-05T09:09:15.135Z,99947.44
2022-10-05T09:12:26.617Z,99955.28
2022-10-05T09:15:27.735Z,99954.94
2022-10-05T09:18:32.390Z,99954.69
2022-10-05T09:21:23.472Z,99959.22
2022-10-05T09:24:12.375Z,99952.69
2022-10-05T09:27:01.907Z,99952.16
2022-10-05T09:30:02.880Z,99955.34
2022-10-05T09:33:03.553Z,99963.78
2022-10-05T09:35:42.916Z,99967.03
2022-10-05T09:38:59.609Z,99965.22
2022-10-05T09:41:55.061Z,99946.59
2022-10-05T09:45:06.352Z,99939.13
2022-10-05T09:47:46.150Z,99946.66
2022-10-05T09:50:38.178Z,99950.59
2022-10-05T09:53:47.067Z,99942.00
2022-10-05T09:56:34.447Z,99928.19
2022-10-05T09:59:22.927Z,99938.53
2022-10-05T10:02:20.280Z,99953.31
2022-10-05T10:05:24.258Z,99942.91
2022-10-05T10:08:22.559Z,99943.38
2022-10-05T10:11:07.970Z,99959.06
2022-10-05T10:13:57.551Z,99957.44
2022-10-05T10:16:58.842Z,99951.03
2022-10-05T10:20:13.096Z,99944.13
2022-10-05T10:22:52.666Z,99942.00
2022-10-05T10:25:41.578Z,99935.44
2022-10-05T10:28:58.166Z,99944.97
2022-10-05T10:31:47.456Z,99938.78
2022-10-05T10:34:40.040Z,99939.84
2022-10-05T10:37:45.288Z,99927.28
2022-10-05T10:40:26.887Z,99912.13
2022-10-05T10:43:30.932Z,99912.47
2022-10-05T10:46:07.138Z,99905.84
2022-10-05T10:48:40.409Z,99904.25
2022-10-05T10:51:48.604Z,99905.53
2022-10-05T10:55:20.168Z,99914.97
2022-10-05T10:58:27.573Z,99905.47
2022-10-05T11:01:39.511Z,99894.06
2022-10-05T11:04:56.688Z,99894.59
2022-10-05T11:07:57.069Z,99892.00
2022-10-05T11:11:19.157Z,99881.47
2022-10-05T11:14:39.348Z,99875.25
2022-10-05T11:17:29.429Z,99873.22
2022-10-05T11:20:36.934Z,99881.41
2022-10-05T11:23:38.779Z,99880.94
2022-10-05T11:26:33.835Z,99881.78
2022-10-05T11:29:33.778Z,99878.88
2022-10-05T11:32:33.063Z,99867.25
2022-10-05T11:35:24.494Z,99872.41
2022-10-05T11:38:13.581Z,99876.09
2022-10-05T11:40:59.054Z,99862.97
2022-10-05T11:43:56.772Z,99857.81
2022-10-05T11:47:03.297Z,99862.75
2022-10-05T11:49:37.276Z,99853.38
2022-10-05T11:52:19.816Z,99848.38
2022-10-05T11:55:23.157Z,99845.81
2022-10-05T11:58:26.490Z,99830.56
2022-10-05T12:01:03.416Z,99835.00
2022-10-05T12:03:42.230Z,99836.22
2022-10-05T12:06:26.549Z,99828.88
2022-10-05T12:09:21.587Z,99832.38
2022-10-05T12:12:27.212Z,99844.84
2022-10-05T12:15:06.198Z,99844.84
2022-10-05T12:17:52.927Z,99848.09
2022-10-05T12:20:45.898Z,99847.06
2022-10-05T12:23:13.380Z,99841.88
2022-10-05T12:26:04.231Z,99843.81
2022-10-05T12:28:55.376Z,99844.97
2022-10-05T12:31:58.646Z,99839.31
2022-10-05T12:35:53.786Z,99834.63
2022-10-05T12:38:37.763Z,99838.91
2022-10-05T12:41:20.434Z,99836.84
2022-10-05T12:44:24.739Z,99832.78
2022-10-05T12:47:24.419Z,99831.34
2022-10-05T12:50:02.105Z,99819.78
2022-10-05T12:52:43.325Z,99830.59
2022-10-05T12:55:48.325Z,99833.84
2022-10-05T12:58:53.584Z,99827.31
2022-10-05T13:01:39.223Z,99826.28
2022-10-05T13:04:31.550Z,99819.56
2022-10-05T13:07:40.447Z,99815.91
2022-10-05T13:10:28.166Z,99810.53
2022-10-05T13:13:36.724Z,99805.50
2022-10-05T13:16:17.259Z,99804.22
2022-10-05T13:19:00.113Z,99799.75
2022-10-05T13:21:57.397Z,99785.63
2022-10-05T13:24:42.266Z,99789.91
2022-10-05T13:27:23.810Z,99799.31
2022-10-05T13:30:12.272Z,99794.00
2022-10-05T13:33:28.444Z,99787.88
2022-10-05T13:36:25.074Z,99784.38
2022-10-05T13:39:25.657Z,99778.34
2022-10-05T13:42:14.854Z,99785.25
2022-10-05T13:45:01.200Z,99772.75
2022-10-05T13:48:07.885Z,99781.34
2022-10-05T13:51:06.384Z,99777.53
2022-10-05T13:53:53.125Z,99792.75
2022-10-05T13:56:42.620Z,99785.19
2022-10-05T13:59:38.269Z,99779.66
2022-10-05T14:02:11.045Z,99786.94
2022-10-05T14:05:16.351Z,99776.38
2022-10-05T14:08:04.091Z,99789.78
2022-10-05T14:10:43.661Z,99780.66
2022-10-05T14:13:33.685Z,99774.56
2022-10-05T14:16:06.138Z,99769.66
2022-10-05T14:18:37.480Z,99773.31
2022-10-05T14:21:24.099Z,99760.91
2022-10-05T14:23:53.103Z,99765.16
2022-10-05T14:26:35.003Z,99764.16
2022-10-05T14:29:23.638Z,99762.22
2022-10-05T14:31:53.839Z,99757.28
2022-10-05T14:34:36.102Z,99760.97
2022-10-05T14:37:25.249Z,99764.19
2022-10-05T14:40:03.389Z,99765.81
2022-10-05T14:42:47.093Z,99763.94
2022-10-05T14:45:23.674Z,99765.81
2022-10-05T14:48:00.301Z,99771.94
2022-10-05T14:50:31.325Z,99769.84
2022-10-05T14:53:21.519Z,99765.13
2022-10-05T14:56:06.437Z,99770.56
2022-10-05T14:58:55.622Z,99768.53
2022-10-05T15:01:36.596Z,99768.31
2022-10-05T15:04:47.647Z,99758.75
2022-10-05T15:07:40.311Z,99754.44
2022-10-05T15:10:49.884Z,99759.28
2022-10-05T15:13:31.186Z,99761.31
2022-10-05T15:16:31.300Z,99759.25
2022-10-05T15:19:21.761Z,99760.84
2022-10-05T15:22:22.907Z,99763.25
2022-10-05T15:24:50.305Z,99765.38
2022-10-05T15:27:39.916Z,99768.19
2022-10-05T15:30:19.060Z,99772.69
2022-10-05T15:32:58.307Z,99768.53
2022-10-05T15:36:04.632Z,99764.03
2022-10-05T15:39:06.174Z,99771.25
2022-10-05T15:41:36.455Z,99762.63
2022-10-05T15:44:49.048Z,99756.41
2022-10-05T15:47:31.508Z,99769.72
2022-10-05T15:50:22.244Z,99779.25
2022-10-05T15:53:15.834Z,99769.97
2022-10-05T15:56:19.029Z,99763.09
2022-10-05T15:59:06.976Z,99768.44
2022-10-05T16:01:34.367Z,99771.97
2022-10-05T16:04:30.115Z,99778.38
2022-10-05T16:07:22.122Z,99779.19
2022-10-05T16:10:21.586Z,99774.72
2022-10-05T16:13:12.250Z,99772.38
2022-10-05T16:16:12.613Z,99771.44
2022-10-05T16:18:57.535Z,99770.50
2022-10-05T16:22:14.380Z,99780.94
2022-10-05T16:25:27.507Z,99790.91
2022-10-05T16:28:22.786Z,99799.13
2022-10-05T16:31:11.202Z,99801.69
2022-10-05T16:34:09.435Z,99811.22
2022-10-05T16:36:58.668Z,99792.84
2022-10-05T16:39:55.445Z,99803.75
2022-10-05T16:43:03.417Z,99810.38
2022-10-05T16:46:10.046Z,99818.47
2022-10-05T16:48:56.464Z,99818.00
2022-10-05T16:51:41.377Z,99813.25
2022-10-05T16:54:26.881Z,99817.38
2022-10-05T16:57:04.395Z,99836.59
2022-10-05T16:59:57.512Z,99829.72
2022-10-05T17:02:57.545Z,99838.16
2022-10-05T17:06:27.514Z,99842.44
2022-10-05T17:09:56.799Z,99837.69
2022-10-05T17:13:00.761Z,99836.06
2022-10-05T17:15:54.231Z,99832.13
2022-10-05T17:18:51.568Z,99826.06
2022-10-05T17:21:37.567Z,99834.25
2022-10-05T17:24:29.349Z,99835.09
2022-10-05T17:27:15.904Z,99825.13
2022-10-05T17:30:23.538Z,99821.84
2022-10-05T17:33:04.641Z,99827.56
2022-10-05T17:36:06.254Z,99826.09
2022-10-05T17:38:34.327Z,99816.25
2022-10-05T17:41:22.683Z,99826.91
2022-10-05T17:44:20.711Z,99824.94
2022-10-05T17:47:04.840Z,99822.63
2022-10-05T17:49:38.005Z,99830.66
2022-10-05T17:53:05.060Z,99829.84
2022-10-05T17:55:46.136Z,99836.72
2022-10-05T17:58:27.617Z,99833.97
2022-10-05T18:00:58.251Z,99826.22
2022-10-05T18:03:49.183Z,99834.56
2022-10-05T18:06:25.637Z,99835.25
2022-10-05T18:09:22.791Z,99834.94
2022-10-05T18:12:17.965Z,99841.69
2022-10-05T18:14:59.973Z,99841.97
2022-10-05T18:17:46.241Z,99839.84
2022-10-05T18:20:31.796Z,99835.41
2022-10-05T18:23:09.497Z,99830.16
2022-10-05T18:26:01.412Z,99829.50
2022-10-05T18:28:59.271Z,99838.66
2022-10-05T18:31:41.716Z,99838.34
2022-10-05T18:34:34.722Z,99839.47
2022-10-05T18:38:09.531Z,99833.84
2022-10-05T18:40:59.946Z,99833.19
2022-10-05T18:43:56.483Z,99828.75
2022-10-05T18:46:50.811Z,99832.97
2022-10-05T18:49:33.973Z,99834.84
2022-10-05T18:52:27.846Z,99838.25
2022-10-05T18:55:17.196Z,99833.78
2022-10-05T18:58:26.015Z,99827.53
2022-10-05T19:01:23.155Z,99845.47
2022-10-05T19:04:33.388Z,99843.81
2022-10-05T19:07:23.492Z,99836.81
2022-10-05T19:10:11.623Z,99847.16
2022-10-05T19:12:58.603Z,99844.44
2022-10-05T19:16:14.142Z,99843.75
2022-10-05T19:19:00.279Z,99854.47
2022-10-05T19:21:41.651Z,99849.38
2022-10-05T19:24:28.086Z,99852.16
2022-10-05T19:27:13.876Z,99853.50
2022-10-05T19:30:19.943Z,99860.16
2022-10-05T19:33:06.581Z,99866.59
2022-10-05T19:36:01.151Z,99864.13
2022-10-05T19:38:43.153Z,99871.28
2022-10-05T19:41:31.078Z,99864.06
2022-10-05T19:44:14.955Z,99867.38
2022-10-05T19:47:10.173Z,99874.56
2022-10-05T19:49:43.079Z,99878.34
2022-10-05T19:52:20.983Z,99874.09
2022-10-05T19:55:16.106Z,99864.31
2022-10-05T19:57:53.795Z,99867.47
2022-10-05T20:00:27.237Z,99865.00
2022-10-05T20:03:16.240Z,99872.53
2022-10-05T20:05:44.536Z,99871.94
2022-10-05T20:08:20.929Z,99873.22
2022-10-05T20:11:27.251Z,99873.91
2022-10-05T20:13:59.634Z,99877.31
2022-10-05T20:16:53.370Z,99887.94
2022-10-05T20:19:48.079Z,99886.34
2022-10-05T20:22:37.381Z,99884.31
2022-10-05T20:25:18.323Z,99885.69
2022-10-05T20:27:55.382Z,99875.75
2022-10-05T20:30:29.043Z,99885.22
2022-10-05T20:32:59.671Z,99884.13
2022-10-05T20:35:30.553Z,99888.38
2022-10-05T20:38:00.077Z,99885.13
2022-10-05T20:40:29.576Z,99888.56
2022-10-05T20:42:58.470Z,99885.69
2022-10-05T20:45:26.115Z,99889.09
2022-10-05T20:47:53.646Z,99894.56
2022-10-05T20:50:22.228Z,99896.75
2022-10-05T20:52:49.725Z,99894.94
2022-10-05T20:55:17.316Z,99905.09
2022-10-05T20:57:46.127Z,99907.88
2022-10-05T21:00:14.316Z,99909.84
2022-10-05T21:02:41.758Z,99911.41
2022-10-05T21:05:09.813Z,99894.44
2022-10-05T21:07:37.423Z,99902.84
2022-10-05T21:10:06.663Z,99909.84
2022-10-05T21:12:34.667Z,99903.56
2022-10-05T21:15:06.691Z,99904.56
2022-10-05T21:17:34.677Z,99896.53
2022-10-05T21:20:02.426Z,99898.34
2022-10-05T21:22:30.003Z,99894.25
2022-10-05T21:24:58.441Z,99898.09
2022-10-05T21:27:25.790Z,99893.38
2022-10-05T21:29:53.162Z,99893.38
2022-10-05T21:32:20.687Z,99898.91
2022-10-05T21:34:48.173Z,99883.53
2022-10-05T21:37:15.637Z,99888.06
2022-10-05T21:39:43.099Z,99885.47
2022-10-05T21:42:10.558Z,99882.03
2022-10-05T21:44:38.060Z,99884.25
2022-10-05T21:47:06.972Z,99866.41
2022-10-05T21:49:36.278Z,99868.22
2022-10-05T21:52:05.660Z,99850.50
2022-10-05T21:54:34.201Z,99847.47
2022-10-05T21:57:02.797Z,99836.91
2022-10-05T21:59:33.996Z,99835.25
2022-10-05T22:02:02.296Z,99829.38
2022-10-05T22:04:29.795Z,99829.81
2022-10-05T22:06:57.474Z,99828.31
2022-10-05T22:09:25.030Z,99815.41
2022-10-05T22:11:52.630Z,99818.97
2022-10-05T22:14:20.072Z,99819.38
2022-10-05T22:16:47.698Z,99812.38
2022-10-05T22:19:19.987Z,99813.59
2022-10-05T22:21:47.499Z,99810.56
2022-10-05T22:24:15.021Z,99803.56
2022-10-05T22:26:46.678Z,99799.16
2022-10-05T22:29:16.171Z,99804.38
2022-10-05T22:31:48.722Z,99790.09
2022-10-05T22:34:18.265Z,99794.00
2022-10-05T22:36:47.401Z,99793.03
2022-10-05T22:39:17.068Z,99787.91
2022-10-05T22:41:44.981Z,99789.94
2022-10-05T22:44:12.598Z,99787.72
2022-10-05T22:46:40.363Z,99792.34
2022-10-05T22:49:07.895Z,99791.94
2022-10-05T22:51:35.469Z,99791.50
2022-10-05T22:54:02.949Z,99784.72
2022-10-05T22:56:30.612Z,99795.31
2022-10-05T22:58:58.190Z,99785.03
2022-10-05T23:01:27.042Z,99789.13
2022-10-05T23:03:57.184Z,99795.19
2022-10-05T23:06:28.012Z,99790.94
2022-10-05T23:08:55.629Z,99793.69
2022-10-05T23:11:28.110Z,99800.16
2022-10-05T23:13:56.946Z,99798.84
2022-10-05T23:16:27.973Z,99801.47
2022-10-05T23:18:56.755Z,99797.63
2022-10-05T23:21:28.794Z,99807.78
2022-10-05T23:23:56.377Z,99807.03
2022-10-05T23:26:25.421Z,99809.09
2022-10-05T23:28:54.016Z,99805.94
2022-10-05T23:31:25.820Z,99801.00
2022-10-05T23:33:53.915Z,99803.63
2022-10-05T23:36:24.631Z,99800.34
2022-10-05T23:38:52.730Z,99798.84
2022-10-05T23:41:21.246Z,99809.97
2022-10-05T23:43:49.229Z,99804.63
2022-10-05T23:46:17.896Z,99809.72
2022-10-05T23:48:45.498Z,99806.69
2022-10-05T23:51:14.452Z,99813.13
2022-10-05T23:53:41.962Z,99808.44
2022-10-05T23:56:09.418Z,99802.28
2022-10-05T23:58:37.058Z,99805.28
